CheckWX is a tool to help pilots better visualize weather data.  It is not intended as a substitute for an official pre-flight weather briefing.

17:09:28 UTC

8W2 METAR
New Market Airport
New Market, Virginia, USA
Current

34 mins ago

K8W2 211635Z AUTO 00000KT 10SM SCT046 33/22 A2994 RMK AO1 T03260222
Observed
Jul-21 @ 16:35 UTC
Visibility
10 SM
Flight Rules
VFR
Cloud Levels
  • Scattered at 4,600' AGL
Temperature
33°C / 91°F
Dewpoint
22°C / 72°F
Heat Index
37°C / 98°F
Humidity
52%
Altimeter
29.94" Hg
Pressure
1013.92 hPa
Previous

54 mins ago

K8W2 211615Z AUTO 02004KT 10SM SCT044 33/23 A2994 RMK AO1 T03250228
Observed
Jul-21 @ 16:15 UTC
Wind
  • 020° at 4 KTS
Visibility
10 SM
Flight Rules
VFR
Cloud Levels
  • Scattered at 4,400' AGL
Temperature
33°C / 91°F
Dewpoint
23°C / 73°F
Heat Index
38°C / 100°F
Humidity
56%
Altimeter
29.94" Hg
Pressure
1013.92 hPa
Previous

1 hour ago

K8W2 211555Z AUTO 00000KT 10SM SCT040 SCT048 33/24 A2995 RMK AO1 T03250240
Observed
Jul-21 @ 15:55 UTC
Visibility
10 SM
Flight Rules
VFR
Cloud Levels
  • Scattered at 4,000' AGL
  • Scattered at 4,800' AGL
Temperature
33°C / 91°F
Dewpoint
24°C / 75°F
Heat Index
39°C / 102°F
Humidity
59%
Altimeter
29.95" Hg
Pressure
1014.22 hPa